Time;durP1;ratioP1;P1;durP2;ratioP2;P2;SDS_P1;SDS_P2;PMS_P1;PMS_P2;Temp;Humidity;BMP_temperature;BMP_pressure;BME280_temperature;BME280_humidity;BME280_pressure;Samples;Min_cycle;Max_cycle;Signal;HPM_P1;HPM_P2
2022/04/09 00:00:46;;;;;;;7.38;1.60;;;10.80;75.30;;;;;;5036244;28;20437;-76
2022/04/09 00:03:11;;;;;;;6.90;1.85;;;10.80;75.20;;;;;;5035659;28;20036;-76
2022/04/09 00:05:36;;;;;;;6.68;1.52;;;10.70;75.30;;;;;;5015634;28;20025;-75
2022/04/09 00:08:02;;;;;;;5.95;1.58;;;10.80;75.20;;;;;;5040805;28;20378;-75
2022/04/09 00:10:28;;;;;;;6.95;1.63;;;10.80;75.30;;;;;;5052668;28;20033;-75
2022/04/09 00:12:53;;;;;;;5.35;1.60;;;10.80;75.30;;;;;;5029635;28;20141;-74
2022/04/09 00:15:19;;;;;;;4.88;1.60;;;10.80;75.30;;;;;;5016735;28;20022;-75
2022/04/09 00:17:46;;;;;;;5.57;1.50;;;10.80;75.20;;;;;;5029807;28;20543;-75
2022/04/09 00:20:15;;;;;;;6.72;1.40;;;10.80;75.40;;;;;;5047095;28;20050;-75
2022/04/09 00:22:41;;;;;;;5.30;1.27;;;10.80;75.30;;;;;;5031043;28;20021;-76
2022/04/09 00:25:08;;;;;;;6.53;1.52;;;10.80;75.30;;;;;;5052460;28;20025;-76
2022/04/09 00:27:34;;;;;;;7.07;1.80;;;10.80;75.20;;;;;;5034714;28;20028;-76
2022/04/09 00:30:00;;;;;;;5.95;1.70;;;10.80;75.30;;;;;;5033590;28;20029;-75
2022/04/09 00:32:26;;;;;;;6.32;1.50;;;10.70;75.30;;;;;;5016028;28;20486;-75
2022/04/09 00:34:51;;;;;;;5.72;1.75;;;10.80;75.40;;;;;;5025691;28;20036;-76
2022/04/09 00:37:17;;;;;;;5.68;1.80;;;10.80;75.40;;;;;;5018914;28;20025;-76
2022/04/09 00:39:42;;;;;;;6.28;1.70;;;10.80;75.40;;;;;;5023017;28;20494;-75
2022/04/09 00:42:18;;;;;;;5.00;1.50;;;10.70;75.30;;;;;;5026898;28;20060;-76
2022/04/09 00:44:44;;;;;;;7.03;1.65;;;10.70;75.30;;;;;;5015720;28;20090;-75
2022/04/09 00:47:10;;;;;;;6.40;1.55;;;10.80;75.40;;;;;;5014753;28;20021;-77
2022/04/09 00:49:37;;;;;;;5.63;1.30;;;10.80;75.40;;;;;;5019098;28;20029;-75
2022/04/09 00:52:05;;;;;;;5.93;1.65;;;10.80;75.40;;;;;;5022338;28;20025;-75
2022/04/09 00:54:37;;;;;;;8.13;1.60;;;10.80;75.40;;;;;;5026123;28;20025;-75
2022/04/09 00:57:05;;;;;;;5.65;1.40;;;10.70;75.40;;;;;;5033091;28;20029;-75
2022/04/09 00:59:34;;;;;;;6.78;1.85;;;10.80;75.40;;;;;;5042430;28;20118;-75
2022/04/09 01:02:00;;;;;;;5.80;1.60;;;10.70;75.40;;;;;;5051473;28;20029;-76
2022/04/09 01:04:27;;;;;;;5.57;1.88;;;10.80;75.40;;;;;;5026738;28;20036;-75
2022/04/09 01:06:55;;;;;;;7.38;1.70;;;10.70;75.30;;;;;;5048466;28;20025;-76
2022/04/09 01:09:21;;;;;;;9.02;2.05;;;10.70;75.40;;;;;;5022337;28;20104;-75
2022/04/09 01:11:47;;;;;;;5.65;1.52;;;10.70;75.40;;;;;;5029093;28;20056;-76
2022/04/09 01:14:13;;;;;;;4.45;1.38;;;10.70;75.30;;;;;;5025529;28;20025;-77
2022/04/09 01:16:39;;;;;;;4.45;1.60;;;10.70;75.40;;;;;;5023149;28;20029;-77
2022/04/09 01:19:04;;;;;;;6.85;1.45;;;10.70;75.40;;;;;;5050993;28;20039;-75
2022/04/09 01:21:30;;;;;;;4.45;1.20;;;10.80;75.40;;;;;;5022814;28;20029;-75
2022/04/09 01:23:55;;;;;;;4.93;1.35;;;10.70;75.30;;;;;;5031945;28;20028;-75
2022/04/09 01:26:22;;;;;;;8.68;1.65;;;10.70;75.40;;;;;;5023021;28;20046;-75
2022/04/09 01:28:48;;;;;;;6.03;1.80;;;10.80;75.50;;;;;;5014319;28;20076;-75
2022/04/09 01:31:14;;;;;;;6.45;1.65;;;10.70;75.40;;;;;;5014752;28;20402;-77
2022/04/09 01:33:40;;;;;;;5.88;1.30;;;10.70;75.40;;;;;;5038256;28;20440;-75
2022/04/09 01:36:06;;;;;;;6.10;1.58;;;10.70;75.30;;;;;;5015158;28;20055;-75
2022/04/09 01:38:34;;;;;;;5.43;1.73;;;10.70;75.40;;;;;;5021761;28;20460;-75
2022/04/09 01:40:59;;;;;;;11.48;1.63;;;10.70;75.40;;;;;;5024705;28;20025;-75
2022/04/09 01:43:25;;;;;;;9.63;1.60;;;10.70;75.40;;;;;;5022164;28;20032;-76
2022/04/09 01:45:51;;;;;;;6.95;1.85;;;10.70;75.40;;;;;;5044922;28;20029;-76
2022/04/09 01:48:16;;;;;;;6.72;1.40;;;10.70;75.40;;;;;;5022318;28;20104;-76
2022/04/09 01:50:42;;;;;;;6.82;1.75;;;10.70;75.30;;;;;;5048381;28;20025;-76
2022/04/09 01:53:07;;;;;;;9.80;1.90;;;10.70;75.30;;;;;;5023918;28;20021;-75
2022/04/09 01:55:33;;;;;;;4.82;1.23;;;10.70;75.30;;;;;;5024733;28;20033;-75
2022/04/09 01:57:59;;;;;;;5.50;1.80;;;10.70;75.30;;;;;;5040324;28;20051;-75
2022/04/09 02:00:25;;;;;;;6.00;1.50;;;10.70;75.30;;;;;;5041029;28;20063;-75
2022/04/09 02:02:51;;;;;;;5.63;1.30;;;10.70;75.30;;;;;;5014439;28;20033;-75
2022/04/09 02:05:17;;;;;;;5.00;1.45;;;10.70;75.40;;;;;;5020292;28;20032;-75
2022/04/09 02:07:44;;;;;;;6.10;1.52;;;10.60;75.30;;;;;;5031433;28;20052;-75
2022/04/09 02:10:11;;;;;;;6.82;1.60;;;10.70;75.40;;;;;;5044640;28;20022;-76
2022/04/09 02:12:37;;;;;;;9.40;1.63;;;10.70;75.30;;;;;;5023243;28;20057;-76
2022/04/09 02:15:08;;;;;;;7.50;1.52;;;10.70;75.40;;;;;;5032419;28;20029;-76
2022/04/09 02:17:38;;;;;;;7.35;1.70;;;10.70;75.40;;;;;;5041080;28;20082;-75
2022/04/09 02:20:09;;;;;;;7.05;1.60;;;10.70;75.40;;;;;;5033344;28;20486;-75
2022/04/09 02:22:35;;;;;;;7.10;1.73;;;10.70;75.30;;;;;;5027228;28;20030;-75
2022/04/09 02:25:05;;;;;;;29.80;3.45;;;10.70;75.30;;;;;;5044010;28;20108;-75
2022/04/09 02:27:31;;;;;;;20.40;2.47;;;10.70;75.50;;;;;;5016097;28;20081;-75
2022/04/09 02:29:57;;;;;;;8.93;1.90;;;10.70;75.50;;;;;;5016977;28;20029;-75
2022/04/09 02:32:23;;;;;;;9.45;1.90;;;10.70;75.40;;;;;;5029192;28;20021;-76
2022/04/09 02:34:49;;;;;;;8.63;1.90;;;10.70;75.40;;;;;;5027655;28;20041;-75
2022/04/09 02:37:15;;;;;;;10.32;1.85;;;10.70;75.50;;;;;;5035527;28;20025;-75
2022/04/09 02:39:40;;;;;;;8.02;1.65;;;10.70;75.40;;;;;;5020150;28;20500;-75
2022/04/09 02:42:06;;;;;;;8.80;2.38;;;10.70;75.40;;;;;;5033452;28;20549;-76
2022/04/09 02:44:32;;;;;;;12.90;1.95;;;10.70;75.90;;;;;;5035884;28;20060;-75
2022/04/09 02:46:58;;;;;;;7.85;1.50;;;10.70;75.40;;;;;;5053370;28;20028;-75
2022/04/09 02:49:23;;;;;;;9.07;1.80;;;10.70;75.40;;;;;;5017739;28;20025;-77
2022/04/09 02:51:49;;;;;;;9.23;1.92;;;10.70;75.40;;;;;;5026437;28;20261;-75
2022/04/09 02:54:17;;;;;;;6.90;1.67;;;10.70;75.40;;;;;;5037178;28;20464;-76
2022/04/09 02:56:44;;;;;;;5.47;1.73;;;10.70;75.40;;;;;;5035510;28;20025;-76
2022/04/09 02:59:10;;;;;;;7.75;1.73;;;10.70;75.40;;;;;;5035630;28;20025;-75
2022/04/09 03:01:35;;;;;;;9.00;1.70;;;10.70;75.40;;;;;;5019226;28;20037;-75
2022/04/09 03:04:01;;;;;;;8.95;1.70;;;10.70;75.40;;;;;;5046140;28;20025;-76
2022/04/09 03:06:27;;;;;;;7.53;1.70;;;10.70;75.40;;;;;;5035262;28;20021;-75
2022/04/09 03:08:52;;;;;;;8.95;1.60;;;10.70;75.40;;;;;;5017875;28;20259;-76
2022/04/09 03:11:21;;;;;;;5.85;1.45;;;10.70;75.50;;;;;;5037836;28;20513;-77
2022/04/09 03:13:46;;;;;;;7.38;1.92;;;10.70;75.40;;;;;;5025682;28;20017;-75
2022/04/09 03:16:12;;;;;;;6.43;1.50;;;10.70;75.50;;;;;;5036007;28;20086;-75
2022/04/09 03:18:37;;;;;;;7.65;1.67;;;10.70;75.50;;;;;;5034605;28;20033;-75
2022/04/09 03:21:03;;;;;;;6.82;1.65;;;10.70;75.50;;;;;;5020221;28;20024;-76
2022/04/09 03:23:28;;;;;;;7.65;1.77;;;10.70;75.60;;;;;;5020233;28;20507;-76
2022/04/09 03:25:54;;;;;;;6.43;1.98;;;10.70;75.60;;;;;;5033860;28;20532;-75
2022/04/09 03:28:19;;;;;;;7.15;1.50;;;10.70;75.60;;;;;;5021383;28;20017;-76
2022/04/09 03:30:45;;;;;;;8.18;1.90;;;10.70;75.60;;;;;;5021858;28;20092;-76
2022/04/09 03:33:10;;;;;;;6.85;1.73;;;10.70;75.60;;;;;;5049239;28;20043;-75
2022/04/09 03:35:36;;;;;;;5.53;1.77;;;10.60;75.50;;;;;;5053280;28;20040;-76
2022/04/09 03:38:02;;;;;;;7.15;1.80;;;10.70;75.60;;;;;;5032166;28;20472;-75
2022/04/09 03:40:27;;;;;;;8.38;1.65;;;10.70;75.60;;;;;;5046860;28;20034;-75
2022/04/09 03:42:53;;;;;;;8.15;1.70;;;10.70;75.60;;;;;;5017128;28;20056;-76
2022/04/09 03:45:18;;;;;;;5.20;1.60;;;10.70;75.60;;;;;;5045193;28;20047;-76
2022/04/09 03:47:44;;;;;;;6.40;1.67;;;10.70;75.60;;;;;;5033602;28;20033;-76
2022/04/09 03:50:09;;;;;;;6.18;1.90;;;10.70;75.60;;;;;;5022266;28;20057;-76
2022/04/09 03:52:35;;;;;;;5.47;1.70;;;10.60;75.50;;;;;;5016528;28;20461;-75
2022/04/09 03:55:01;;;;;;;5.68;1.73;;;10.60;75.60;;;;;;5028375;28;20033;-76
2022/04/09 03:57:26;;;;;;;6.00;1.80;;;10.70;75.60;;;;;;5051332;28;20128;-76
2022/04/09 03:59:55;;;;;;;6.70;1.88;;;10.60;76.00;;;;;;5033708;28;20124;-75
2022/04/09 04:02:21;;;;;;;5.18;1.73;;;10.70;75.60;;;;;;5052086;28;20052;-75
2022/04/09 04:04:47;;;;;;;6.30;1.63;;;10.70;75.70;;;;;;5032829;28;20036;-76
2022/04/09 04:07:13;;;;;;;7.60;1.63;;;10.70;75.60;;;;;;5027992;28;20029;-75
2022/04/09 04:09:39;;;;;;;6.75;1.60;;;10.70;75.60;;;;;;5023566;28;20017;-76
2022/04/09 04:12:05;;;;;;;9.13;1.80;;;10.60;75.50;;;;;;5028752;28;20028;-75
2022/04/09 04:14:30;;;;;;;6.53;1.67;;;10.60;75.50;;;;;;5033440;28;20033;-75
2022/04/09 04:16:56;;;;;;;7.10;1.60;;;10.70;75.70;;;;;;5033475;28;20040;-76
2022/04/09 04:19:21;;;;;;;6.82;2.00;;;10.60;75.60;;;;;;5021207;28;20025;-76
2022/04/09 04:21:47;;;;;;;5.43;1.88;;;10.70;75.70;;;;;;5031589;28;20112;-76
2022/04/09 04:24:12;;;;;;;6.78;1.58;;;10.70;75.70;;;;;;5034925;28;20074;-76
2022/04/09 04:26:38;;;;;;;5.13;1.92;;;10.70;75.70;;;;;;5032865;28;20028;-75
2022/04/09 04:29:03;;;;;;;4.93;1.40;;;10.60;75.60;;;;;;5026019;28;20028;-76
2022/04/09 04:31:29;;;;;;;6.70;1.65;;;10.60;75.60;;;;;;5033399;28;20088;-75
2022/04/09 04:33:54;;;;;;;7.28;1.88;;;10.70;75.60;;;;;;5067192;28;20108;-75
2022/04/09 04:36:20;;;;;;;6.07;1.75;;;10.60;75.60;;;;;;5071567;28;20029;-75
2022/04/09 04:38:47;;;;;;;6.80;1.88;;;10.60;75.70;;;;;;5022514;28;20033;-75
2022/04/09 04:41:12;;;;;;;5.20;1.77;;;10.60;75.60;;;;;;5035028;28;20024;-75
2022/04/09 04:43:38;;;;;;;6.57;1.67;;;10.60;75.60;;;;;;5036784;28;20146;-76
2022/04/09 04:46:04;;;;;;;5.80;1.73;;;10.60;75.60;;;;;;5051823;28;20263;-76
2022/04/09 04:48:32;;;;;;;7.82;1.88;;;10.60;75.60;;;;;;5052285;28;20017;-76
2022/04/09 04:50:57;;;;;;;6.75;1.80;;;10.60;75.70;;;;;;5050521;28;20038;-76
2022/04/09 04:53:22;;;;;;;6.35;1.92;;;10.60;75.60;;;;;;5034149;28;20070;-75
2022/04/09 04:55:48;;;;;;;6.55;1.73;;;10.70;75.60;;;;;;5041517;28;20028;-76
2022/04/09 04:58:18;;;;;;;7.93;1.90;;;10.70;75.70;;;;;;5051017;28;20028;-76
2022/04/09 05:00:44;;;;;;;6.43;1.60;;;10.60;75.70;;;;;;5032267;28;20091;-76
2022/04/09 05:03:09;;;;;;;4.45;1.23;;;10.60;75.60;;;;;;5014403;28;20053;-75
2022/04/09 05:05:35;;;;;;;6.20;1.52;;;10.60;75.70;;;;;;5014422;28;20021;-76
2022/04/09 05:08:00;;;;;;;6.95;1.88;;;10.60;75.60;;;;;;5031766;28;20025;-76
2022/04/09 05:10:27;;;;;;;6.20;1.90;;;10.60;75.60;;;;;;5014454;28;20076;-76
2022/04/09 05:12:54;;;;;;;6.50;1.65;;;10.60;75.70;;;;;;5017103;28;20025;-76
2022/04/09 05:15:20;;;;;;;8.15;2.05;;;10.60;75.70;;;;;;5051781;28;20068;-75
2022/04/09 05:17:46;;;;;;;7.32;1.90;;;10.60;75.60;;;;;;5033887;28;20394;-75
2022/04/09 05:20:16;;;;;;;6.32;1.95;;;10.60;75.60;;;;;;5051648;28;20029;-76
2022/04/09 05:22:49;;;;;;;8.05;1.80;;;10.60;75.60;;;;;;5033114;28;20039;-76
2022/04/09 05:25:19;;;;;;;7.63;2.22;;;10.60;75.60;;;;;;5019379;28;20098;-76
2022/04/09 05:27:45;;;;;;;6.35;1.77;;;10.70;75.70;;;;;;5033504;28;20070;-76
2022/04/09 05:30:11;;;;;;;5.45;1.58;;;10.60;75.60;;;;;;5051521;28;20024;-75
2022/04/09 05:32:39;;;;;;;6.18;1.73;;;10.60;75.60;;;;;;5033796;28;20021;-76
2022/04/09 05:35:05;;;;;;;6.53;1.50;;;10.60;75.70;;;;;;5050866;28;20039;-76
2022/04/09 05:37:31;;;;;;;5.55;1.60;;;10.60;75.70;;;;;;5060375;28;20040;-76
2022/04/09 05:39:57;;;;;;;5.22;1.67;;;10.60;75.70;;;;;;5052041;28;20039;-76
2022/04/09 05:42:24;;;;;;;6.70;1.83;;;10.60;75.70;;;;;;5036669;28;20107;-77
2022/04/09 05:44:49;;;;;;;5.47;1.50;;;10.60;75.70;;;;;;5047465;28;20021;-77
2022/04/09 05:47:15;;;;;;;6.82;1.80;;;10.60;75.80;;;;;;5050166;28;20466;-77
2022/04/09 05:49:40;;;;;;;6.45;1.65;;;10.60;75.70;;;;;;5032106;28;20033;-77
2022/04/09 05:52:06;;;;;;;6.30;1.70;;;10.60;75.70;;;;;;5031817;28;20091;-77
2022/04/09 05:54:32;;;;;;;6.28;1.80;;;10.60;75.80;;;;;;5031830;28;20056;-77
2022/04/09 05:56:59;;;;;;;5.70;1.63;;;10.70;75.70;;;;;;5031568;28;20620;-77
2022/04/09 05:59:26;;;;;;;5.82;1.70;;;10.70;75.70;;;;;;5036462;28;20095;-76
2022/04/09 06:01:52;;;;;;;6.00;1.85;;;10.70;75.60;;;;;;5023729;28;20134;-77
2022/04/09 06:04:20;;;;;;;5.70;1.77;;;10.70;75.50;;;;;;5044483;28;20036;-76
2022/04/09 06:06:46;;;;;;;5.15;1.77;;;10.70;75.50;;;;;;5049370;28;20021;-77
2022/04/09 06:09:12;;;;;;;5.82;1.95;;;10.70;75.40;;;;;;5033168;28;20052;-77
2022/04/09 06:11:37;;;;;;;7.57;1.63;;;10.70;75.40;;;;;;5048924;28;20115;-77
2022/04/09 06:14:03;;;;;;;5.95;1.27;;;10.70;75.40;;;;;;5035688;28;20070;-77
2022/04/09 06:16:30;;;;;;;4.43;1.40;;;10.70;75.40;;;;;;5035581;28;20033;-77
2022/04/09 06:18:56;;;;;;;4.53;1.58;;;10.70;75.40;;;;;;5039695;28;20022;-77
2022/04/09 06:21:21;;;;;;;5.13;1.70;;;10.70;75.40;;;;;;5034077;28;20025;-77
2022/04/09 06:23:46;;;;;;;4.90;1.50;;;10.70;75.40;;;;;;5035613;28;20037;-77
2022/04/09 06:26:12;;;;;;;4.78;1.50;;;10.70;75.30;;;;;;5053447;28;20402;-77
2022/04/09 06:28:38;;;;;;;6.63;1.70;;;10.70;75.40;;;;;;5036029;28;20163;-79
2022/04/09 06:31:03;;;;;;;7.68;1.70;;;10.70;75.40;;;;;;5046599;28;20105;-77
2022/04/09 06:33:29;;;;;;;4.95;1.55;;;10.70;75.40;;;;;;5049226;28;20203;-76
2022/04/09 06:35:54;;;;;;;7.20;1.40;;;10.70;75.40;;;;;;5049916;28;20481;-78
2022/04/09 06:38:20;;;;;;;6.35;1.75;;;10.70;75.40;;;;;;5053546;28;20024;-78
2022/04/09 06:40:45;;;;;;;6.72;1.48;;;10.70;75.40;;;;;;5054958;28;20478;-77
2022/04/09 06:43:11;;;;;;;7.80;1.70;;;10.70;75.40;;;;;;5049344;28;20029;-78
2022/04/09 06:45:36;;;;;;;5.78;1.38;;;10.70;75.40;;;;;;5037296;28;20028;-77
2022/04/09 06:48:02;;;;;;;6.65;1.58;;;10.60;75.40;;;;;;5034988;28;20032;-78
2022/04/09 06:50:28;;;;;;;6.35;1.63;;;10.70;75.40;;;;;;5053295;28;20082;-78
2022/04/09 06:52:53;;;;;;;5.85;1.70;;;10.70;75.40;;;;;;5034755;28;20036;-77
2022/04/09 06:55:19;;;;;;;5.38;1.73;;;10.70;75.40;;;;;;5025562;28;20398;-76
2022/04/09 06:57:44;;;;;;;3.92;1.30;;;10.80;75.50;;;;;;5034693;28;20021;-78
2022/04/09 07:00:13;;;;;;;4.25;1.40;;;10.70;75.40;;;;;;5034508;28;20056;-76
2022/04/09 07:02:39;;;;;;;5.65;1.65;;;10.70;75.40;;;;;;5035245;28;20540;-76
2022/04/09 07:05:05;;;;;;;5.43;1.40;;;10.80;75.40;;;;;;5034799;28;20037;-76
2022/04/09 07:07:31;;;;;;;5.20;1.63;;;10.70;75.30;;;;;;5036146;28;20033;-78
2022/04/09 07:10:09;;;;;;;5.47;1.40;;;10.70;75.40;;;;;;5036814;28;20440;-77
2022/04/09 07:12:35;;;;;;;5.95;1.50;;;10.80;75.40;;;;;;5036213;28;20029;-76
2022/04/09 07:15:01;;;;;;;5.82;1.60;;;10.80;75.40;;;;;;5036070;28;20075;-77
2022/04/09 07:17:26;;;;;;;5.15;1.45;;;10.70;75.30;;;;;;5042297;28;20493;-78
2022/04/09 07:19:56;;;;;;;4.18;1.30;;;10.80;75.40;;;;;;5032641;28;20033;-76
2022/04/09 07:22:21;;;;;;;7.82;1.73;;;10.70;75.30;;;;;;5036158;28;20025;-77
2022/04/09 07:24:47;;;;;;;5.43;1.25;;;10.70;75.30;;;;;;5034538;28;20021;-77
2022/04/09 07:27:13;;;;;;;6.18;1.73;;;10.80;75.30;;;;;;5053361;28;20550;-77
2022/04/09 07:29:38;;;;;;;4.22;1.42;;;10.80;75.30;;;;;;5035910;28;20036;-77
2022/04/09 07:32:04;;;;;;;4.47;1.52;;;10.70;75.10;;;;;;5035680;28;20027;-76
2022/04/09 07:34:29;;;;;;;5.65;1.50;;;10.90;75.10;;;;;;5035875;28;20036;-77
2022/04/09 07:36:55;;;;;;;4.38;1.20;;;10.90;75.00;;;;;;5035257;28;20029;-77
2022/04/09 07:39:21;;;;;;;6.28;1.40;;;10.80;74.90;;;;;;5044538;28;20021;-77
2022/04/09 07:41:46;;;;;;;5.65;1.50;;;10.90;75.00;;;;;;5026151;28;20120;-76
2022/04/09 07:44:13;;;;;;;4.10;1.50;;;10.90;75.10;;;;;;5026472;28;20035;-77
2022/04/09 07:46:39;;;;;;;5.35;1.25;;;10.90;75.10;;;;;;5034751;28;20025;-76
2022/04/09 07:49:04;;;;;;;4.07;1.10;;;10.90;75.00;;;;;;5037940;28;20096;-77
2022/04/09 07:51:30;;;;;;;3.65;1.35;;;10.90;74.70;;;;;;5044007;28;20074;-78
2022/04/09 07:53:55;;;;;;;6.03;1.42;;;11.00;74.60;;;;;;5042630;28;20078;-78
2022/04/09 07:56:21;;;;;;;4.72;1.40;;;11.00;74.60;;;;;;5023461;28;20112;-79
2022/04/09 07:58:47;;;;;;;5.38;1.15;;;11.00;74.60;;;;;;5035999;28;20032;-78
2022/04/09 08:01:12;;;;;;;3.80;1.25;;;11.00;74.50;;;;;;5029619;28;20112;-76
2022/04/09 08:03:38;;;;;;;5.45;1.40;;;11.00;74.40;;;;;;5031847;28;20031;-77
2022/04/09 08:06:05;;;;;;;6.25;1.40;;;11.00;74.30;;;;;;5028746;28;20049;-77
2022/04/09 08:08:31;;;;;;;7.95;1.48;;;11.00;74.40;;;;;;5030271;28;20033;-77
2022/04/09 08:10:57;;;;;;;6.32;1.42;;;11.10;74.40;;;;;;5027819;28;20036;-77
2022/04/09 08:13:23;;;;;;;5.72;1.50;;;11.10;74.30;;;;;;5039717;28;20104;-77
2022/04/09 08:15:48;;;;;;;5.78;1.48;;;11.20;74.30;;;;;;5034147;28;20025;-77
2022/04/09 08:18:14;;;;;;;5.72;1.25;;;11.10;74.10;;;;;;5032755;28;20017;-77
2022/04/09 08:20:40;;;;;;;4.38;1.20;;;11.10;74.20;;;;;;5032916;28;20018;-77
2022/04/09 08:23:05;;;;;;;5.43;1.35;;;11.10;74.20;;;;;;5033772;28;20030;-76
2022/04/09 08:25:31;;;;;;;4.82;1.60;;;11.20;74.10;;;;;;5033913;28;20033;-78
2022/04/09 08:27:57;;;;;;;4.22;1.23;;;11.20;74.10;;;;;;5046686;28;20025;-77
2022/04/09 08:30:24;;;;;;;4.47;1.40;;;11.10;74.00;;;;;;5041341;28;20381;-78
2022/04/09 08:32:51;;;;;;;6.20;1.52;;;11.20;74.10;;;;;;4999106;28;20026;-79
2022/04/09 08:35:17;;;;;;;5.07;1.58;;;11.10;74.00;;;;;;5017807;28;20037;-78
2022/04/09 08:37:43;;;;;;;4.05;1.23;;;11.10;74.10;;;;;;5039603;28;20509;-77
2022/04/09 08:40:14;;;;;;;5.95;1.20;;;11.10;74.40;;;;;;5022734;28;20641;-76
2022/04/09 08:42:39;;;;;;;5.72;1.23;;;11.00;74.20;;;;;;5033951;28;20502;-77
2022/04/09 08:45:06;;;;;;;6.88;1.30;;;11.00;74.20;;;;;;5027042;28;20098;-77
2022/04/09 08:47:33;;;;;;;7.32;1.55;;;11.00;74.30;;;;;;5034419;28;20390;-77
2022/04/09 08:49:59;;;;;;;6.88;1.40;;;11.00;74.50;;;;;;5034631;28;20123;-77
2022/04/09 08:52:26;;;;;;;4.82;1.23;;;11.00;74.50;;;;;;5015427;28;20108;-78
2022/04/09 08:54:51;;;;;;;3.85;1.20;;;11.00;74.50;;;;;;5030438;28;20030;-76
2022/04/09 08:57:17;;;;;;;4.47;1.35;;;11.00;74.50;;;;;;5011117;28;20356;-76
2022/04/09 08:59:42;;;;;;;7.55;1.25;;;11.10;74.30;;;;;;5009430;28;20133;-76
2022/04/09 09:02:08;;;;;;;6.53;1.50;;;11.20;74.20;;;;;;5009640;28;20106;-76
2022/04/09 09:04:34;;;;;;;7.40;1.35;;;11.30;74.00;;;;;;5021803;28;20029;-76
2022/04/09 09:07:25;;;;;;;6.32;1.40;;;11.30;73.70;;;;;;5044806;28;20525;-78
2022/04/09 09:09:52;;;;;;;4.50;1.15;;;11.30;73.70;;;;;;5027964;28;20029;-77
2022/04/09 09:12:31;;;;;;;5.45;1.63;;;11.40;73.60;;;;;;5024386;28;20049;-77
2022/04/09 09:14:58;;;;;;;4.75;1.30;;;11.40;73.40;;;;;;5024084;28;20043;-76
2022/04/09 09:17:29;;;;;;;4.30;1.23;;;11.50;73.30;;;;;;5033492;28;20024;-75
2022/04/09 09:19:54;;;;;;;6.57;1.48;;;11.50;73.10;;;;;;5032562;28;20394;-75
2022/04/09 09:22:20;;;;;;;5.82;1.70;;;11.50;73.00;;;;;;5033553;28;20037;-76
2022/04/09 09:25:12;;;;;;;7.75;1.55;;;11.50;73.10;;;;;;5024336;28;20486;-76
2022/04/09 09:27:40;;;;;;;5.55;1.73;;;11.50;73.20;;;;;;5016984;28;20091;-76
2022/04/09 09:30:07;;;;;;;6.70;1.80;;;11.50;73.10;;;;;;5025479;28;20035;-76
2022/04/09 09:32:34;;;;;;;4.90;1.25;;;11.50;73.10;;;;;;5023859;28;20420;-76
2022/04/09 09:34:59;;;;;;;5.20;1.30;;;11.50;73.30;;;;;;5051852;28;20025;-76
2022/04/09 09:37:28;;;;;;;6.22;1.55;;;11.50;73.30;;;;;;5030174;28;20028;-75
2022/04/09 09:39:54;;;;;;;6.43;1.55;;;11.50;73.20;;;;;;5033788;28;20490;-76
2022/04/09 09:42:20;;;;;;;3.85;1.30;;;11.50;73.00;;;;;;5033297;28;20029;-76
2022/04/09 09:44:46;;;;;;;3.97;1.13;;;11.60;73.00;;;;;;5036501;28;20383;-75
2022/04/09 09:47:12;;;;;;;4.65;1.20;;;11.60;73.00;;;;;;5050056;28;20063;-76
2022/04/09 09:49:56;;;;;;;5.57;1.33;;;11.60;72.90;;;;;;5069475;28;20085;-76
2022/04/09 09:52:29;;;;;;;5.93;1.60;;;11.50;72.70;;;;;;5073363;28;20059;-76
2022/04/09 09:55:10;;;;;;;3.72;1.35;;;11.50;72.80;;;;;;5035061;28;20087;-75
2022/04/09 09:57:37;;;;;;;;;;;11.50;72.80;;;;;;5049833;28;20029;-75
2022/04/09 10:00:06;;;;;;;3.05;1.13;;;11.50;72.90;;;;;;5025102;28;19916;-76
2022/04/09 10:02:32;;;;;;;4.63;1.38;;;11.50;72.90;;;;;;5032747;28;20037;-76
2022/04/09 10:04:57;;;;;;;4.97;1.30;;;11.50;72.90;;;;;;5035112;28;20024;-76
2022/04/09 10:07:24;;;;;;;6.65;1.42;;;11.50;72.80;;;;;;5035173;28;20017;-77
2022/04/09 10:09:50;;;;;;;12.38;2.05;;;11.50;72.80;;;;;;5017654;28;20095;-76
2022/04/09 10:12:21;;;;;;;23.10;2.08;;;11.50;72.80;;;;;;5022056;28;20080;-76
2022/04/09 10:14:55;;;;;;;18.08;2.03;;;11.50;72.80;;;;;;5020658;28;20027;-76
2022/04/09 10:17:21;;;;;;;14.43;1.90;;;11.50;72.60;;;;;;5028375;28;20018;-76
2022/04/09 10:19:55;;;;;;;9.27;1.40;;;11.50;72.60;;;;;;5042970;28;20040;-77
2022/04/09 10:22:26;;;;;;;7.55;1.60;;;11.40;72.90;;;;;;5024255;28;20409;-77
2022/04/09 10:24:54;;;;;;;9.18;1.90;;;11.40;72.90;;;;;;5029352;28;20034;-76
2022/04/09 10:27:53;;;;;;;6.80;1.30;;;11.40;73.20;;;;;;5022006;28;20029;-76
2022/04/09 10:30:20;;;;;;;8.48;1.60;;;11.30;73.10;;;;;;5032109;28;20040;-76
2022/04/09 10:32:48;;;;;;;13.13;1.90;;;11.30;73.00;;;;;;5027123;28;20025;-76
2022/04/09 10:35:40;;;;;;;8.73;1.75;;;11.30;73.20;;;;;;5031634;28;20025;-76
2022/04/09 10:38:14;;;;;;;10.65;1.65;;;11.30;73.30;;;;;;5036812;28;20029;-76
2022/04/09 10:40:43;;;;;;;7.18;1.45;;;11.30;73.10;;;;;;5036726;28;20053;-76
2022/04/09 10:43:10;;;;;;;10.20;1.80;;;11.30;73.10;;;;;;5035931;28;20028;-76
2022/04/09 10:46:00;;;;;;;8.75;1.70;;;11.40;72.70;;;;;;5035747;28;20032;-76
2022/04/09 10:48:33;;;;;;;5.10;1.05;;;11.50;72.40;;;;;;5036623;28;20052;-76
2022/04/09 10:51:04;;;;;;;7.43;1.10;;;11.50;72.30;;;;;;5053131;28;20029;-76
2022/04/09 10:53:34;;;;;;;4.43;1.10;;;11.60;72.30;;;;;;5054608;28;20017;-77
2022/04/09 10:56:13;;;;;;;6.25;1.27;;;11.60;72.20;;;;;;5036350;28;20029;-77
2022/04/09 10:59:02;;;;;;;8.93;1.60;;;11.70;72.30;;;;;;5020343;28;20025;-76
2022/04/09 11:01:51;;;;;;;6.43;1.35;;;11.60;72.40;;;;;;5051222;28;20056;-77
2022/04/09 11:04:35;;;;;;;5.43;1.35;;;11.60;72.40;;;;;;5054358;28;20025;-76
2022/04/09 11:07:21;;;;;;;5.15;1.55;;;11.60;72.40;;;;;;5022569;28;20021;-76
2022/04/09 11:09:49;;;;;;;4.30;1.55;;;11.60;72.50;;;;;;5038271;28;20029;-76
2022/04/09 11:12:18;;;;;;;5.38;1.40;;;11.60;72.60;;;;;;5038098;28;20052;-76
2022/04/09 11:14:59;;;;;;;4.57;1.10;;;11.60;72.50;;;;;;5028944;28;20082;-76
2022/04/09 11:17:32;;;;;;;6.40;1.40;;;11.60;72.60;;;;;;5026510;28;20024;-75
2022/04/09 11:20:11;;;;;;;4.45;1.27;;;11.60;72.80;;;;;;5035934;28;20029;-76
2022/04/09 11:22:38;;;;;;;4.78;1.23;;;11.60;72.90;;;;;;5034558;28;20032;-75
2022/04/09 11:25:09;;;;;;;4.18;1.20;;;11.60;72.80;;;;;;5034481;28;20501;-76
2022/04/09 11:27:35;;;;;;;4.20;1.23;;;11.60;72.80;;;;;;5031825;28;20489;-76
2022/04/09 11:30:01;;;;;;;5.57;1.30;;;11.60;72.70;;;;;;5034663;28;20040;-76
2022/04/09 11:32:28;;;;;;;3.75;1.10;;;11.70;72.70;;;;;;5036013;28;20017;-76
2022/04/09 11:34:53;;;;;;;5.75;1.40;;;11.70;72.70;;;;;;5030491;28;20030;-75
2022/04/09 11:37:20;;;;;;;6.80;1.20;;;11.60;72.90;;;;;;5032777;28;20076;-76
2022/04/09 11:39:47;;;;;;;3.25;1.10;;;11.60;73.30;;;;;;5023058;28;20079;-75
2022/04/09 11:42:14;;;;;;;7.45;1.35;;;11.50;73.30;;;;;;5027598;28;20032;-75
2022/04/09 11:44:39;;;;;;;9.63;1.90;;;11.40;73.40;;;;;;5036723;28;20055;-75
2022/04/09 11:47:09;;;;;;;9.95;1.42;;;11.40;73.50;;;;;;5028200;28;20055;-76
2022/04/09 11:49:34;;;;;;;12.32;1.85;;;11.40;73.60;;;;;;5035531;28;20102;-75
2022/04/09 11:52:00;;;;;;;9.20;1.30;;;11.40;73.30;;;;;;5034972;28;20428;-76
2022/04/09 11:54:34;;;;;;;7.25;1.30;;;11.50;73.20;;;;;;5034989;28;20036;-75
2022/04/09 11:57:01;;;;;;;11.32;2.10;;;11.50;73.20;;;;;;5026609;28;20025;-75
2022/04/09 11:59:28;;;;;;;6.05;1.38;;;11.40;73.20;;;;;;5052741;28;20044;-76
2022/04/09 12:01:54;;;;;;;8.73;1.40;;;11.40;73.20;;;;;;5046298;28;20438;-75
2022/04/09 12:04:20;;;;;;;5.05;1.20;;;11.50;73.10;;;;;;5033770;28;20120;-77
2022/04/09 12:06:46;;;;;;;4.80;1.10;;;11.40;73.10;;;;;;5033808;28;20067;-75
2022/04/09 12:09:13;;;;;;;7.75;1.40;;;11.40;73.10;;;;;;5033486;28;20045;-77
2022/04/09 12:11:54;;;;;;;4.65;0.90;;;11.40;73.20;;;;;;5032524;28;20028;-76
2022/04/09 12:14:20;;;;;;;5.25;1.05;;;11.50;73.10;;;;;;5031298;28;20031;-76
2022/04/09 12:16:47;;;;;;;6.25;0.90;;;11.60;73.00;;;;;;5017835;28;20029;-78
2022/04/09 12:19:12;;;;;;;4.40;1.42;;;11.50;72.80;;;;;;5015123;28;20098;-77
2022/04/09 12:21:38;;;;;;;4.80;1.10;;;11.60;72.70;;;;;;5040765;28;20099;-80
2022/04/09 12:24:09;;;;;;;3.22;0.70;;;11.60;72.50;;;;;;5035359;28;20024;-76
2022/04/09 12:26:37;;;;;;;4.40;0.95;;;11.60;72.60;;;;;;5048599;28;20029;-77
2022/04/09 12:29:20;;;;;;;3.50;0.80;;;11.60;72.50;;;;;;5022998;28;20028;-75
2022/04/09 12:31:53;;;;;;;3.88;0.98;;;11.60;72.50;;;;;;5032331;28;20021;-76
2022/04/09 12:34:20;;;;;;;2.00;0.68;;;11.60;72.50;;;;;;5015632;28;20036;-76
2022/04/09 12:37:05;;;;;;;8.00;1.15;;;11.70;72.60;;;;;;5032436;28;20025;-77
2022/04/09 12:39:33;;;;;;;3.17;0.77;;;11.70;72.50;;;;;;5025525;28;20032;-76
2022/04/09 12:41:59;;;;;;;1.60;0.50;;;11.70;72.60;;;;;;5027503;28;20037;-76
2022/04/09 12:44:30;;;;;;;3.70;0.93;;;11.60;72.60;;;;;;5030080;28;20093;-77
2022/04/09 12:46:56;;;;;;;1.80;0.65;;;11.60;72.90;;;;;;5034151;28;20025;-76